FBZ5163 SASA-SAEZ
Flight info
| Callsign | FBZ5163 |
|---|---|
| Flight time | 1h 36m |
| Altitude | 35000 |
| Route | BOK1 PONPI UT681 PUBER UL550 ROS UT672 MULTA UW24 SNT |
| Aircraft | B738/M-VGDW/C |
Departure
| Time | 2026-05-07 01:43 |
|---|---|
| Airport | Martín Miguel de Güemes International Airport (SASA) |
Arrival
| Time | 2026-05-07 03:19 |
|---|---|
| Airport | Ezeiza International Airport - Ministro Pistarini (SAEZ) |
| Time | Latitude | Longitude | Altitude | Speed | Heading |
|---|---|---|---|---|---|
| 2026-05-07 01:29 | -24.84463 | -65.47913 | 4085 ft | 0 kts | 20° |
| 2026-05-07 01:36 | -24.84473 | -65.47917 | 4085 ft | 2 kts | 20° |
| 2026-05-07 01:37 | -24.84484 | -65.47922 | 4085 ft | 2 kts | 20° |
| 2026-05-07 01:37 | -24.84495 | -65.47926 | 4085 ft | 2 kts | 19° |
| 2026-05-07 01:37 | -24.84504 | -65.47930 | 4085 ft | 1 kts | 18° |
| 2026-05-07 01:37 | -24.84514 | -65.47933 | 4085 ft | 2 kts | 355° |
| 2026-05-07 01:38 | -24.84521 | -65.47932 | 4085 ft | 2 kts | 315° |
| 2026-05-07 01:38 | -24.84528 | -65.47922 | 4085 ft | 2 kts | 294° |
| 2026-05-07 01:38 | -24.84532 | -65.47910 | 4085 ft | 1 kts | 292° |
| 2026-05-07 01:38 | -24.84533 | -65.47908 | 4085 ft | 0 kts | 292° |
| 2026-05-07 01:40 | -24.84531 | -65.47914 | 4085 ft | 3 kts | 292° |
| 2026-05-07 01:40 | -24.84512 | -65.47963 | 4085 ft | 11 kts | 292° |
| 2026-05-07 01:40 | -24.84518 | -65.48039 | 4085 ft | 10 kts | 249° |
| 2026-05-07 01:40 | -24.84550 | -65.48131 | 4085 ft | 15 kts | 249° |
| 2026-05-07 01:41 | -24.84583 | -65.48227 | 4085 ft | 13 kts | 249° |
| 2026-05-07 01:41 | -24.84624 | -65.48327 | 4085 ft | 15 kts | 231° |
| 2026-05-07 01:41 | -24.84650 | -65.48410 | 4085 ft | 7 kts | 233° |
| 2026-05-07 01:41 | -24.84680 | -65.48419 | 4085 ft | 0 kts | 193° |
| 2026-05-07 01:42 | -24.84681 | -65.48419 | 4085 ft | 0 kts | 193° |
| 2026-05-07 01:42 | -24.84755 | -65.48436 | 4085 ft | 37 kts | 191° |
| 2026-05-07 01:42 | -24.85235 | -65.48540 | 4085 ft | 104 kts | 192° |
| 2026-05-07 01:43 | -24.86149 | -65.48740 | 4085 ft | 162 kts | 191° |
| 2026-05-07 01:43 | -24.87373 | -65.49007 | 4432 ft | 183 kts | 191° |
| 2026-05-07 01:43 | -24.88595 | -65.49276 | 5294 ft | 178 kts | 193° |
| 2026-05-07 01:43 | -24.89828 | -65.49586 | 5802 ft | 188 kts | 194° |
| 2026-05-07 01:44 | -24.91159 | -65.49831 | 6197 ft | 200 kts | 184° |
| 2026-05-07 01:44 | -24.92586 | -65.49689 | 6570 ft | 215 kts | 168° |
| 2026-05-07 01:44 | -24.94076 | -65.49218 | 6870 ft | 230 kts | 165° |
| 2026-05-07 01:44 | -24.95666 | -65.48718 | 7158 ft | 246 kts | 165° |
| 2026-05-07 01:45 | -24.97363 | -65.48181 | 7435 ft | 262 kts | 164° |
| 2026-05-07 01:45 | -24.99169 | -65.47610 | 7727 ft | 276 kts | 164° |
| 2026-05-07 01:45 | -25.01025 | -65.47023 | 8302 ft | 278 kts | 164° |
| 2026-05-07 01:45 | -25.02882 | -65.46435 | 8850 ft | 285 kts | 165° |
| 2026-05-07 01:46 | -25.04817 | -65.45821 | 9383 ft | 292 kts | 165° |
| 2026-05-07 01:46 | -25.06791 | -65.45194 | 10014 ft | 296 kts | 165° |
| 2026-05-07 01:46 | -25.08784 | -65.44562 | 10645 ft | 300 kts | 165° |
| 2026-05-07 01:46 | -25.10796 | -65.43922 | 11272 ft | 303 kts | 166° |
| 2026-05-07 01:47 | -25.12828 | -65.43253 | 11900 ft | 307 kts | 163° |
| 2026-05-07 01:47 | -25.14836 | -65.42416 | 12527 ft | 310 kts | 161° |
| 2026-05-07 01:47 | -25.16857 | -65.41545 | 13155 ft | 313 kts | 161° |
| 2026-05-07 01:47 | -25.18893 | -65.40666 | 13782 ft | 315 kts | 161° |
| 2026-05-07 01:48 | -25.20916 | -65.39790 | 14400 ft | 317 kts | 161° |
| 2026-05-07 01:48 | -25.22986 | -65.38893 | 15028 ft | 319 kts | 161° |
| 2026-05-07 01:48 | -25.25063 | -65.37992 | 15655 ft | 321 kts | 162° |
| 2026-05-07 01:48 | -25.27144 | -65.37089 | 16281 ft | 323 kts | 162° |
| 2026-05-07 01:49 | -25.29238 | -65.36181 | 16905 ft | 324 kts | 162° |
| 2026-05-07 01:49 | -25.31337 | -65.35271 | 17531 ft | 325 kts | 162° |
| 2026-05-07 01:49 | -25.33444 | -65.34356 | 18158 ft | 325 kts | 162° |
| 2026-05-07 01:49 | -25.35548 | -65.33441 | 18780 ft | 325 kts | 163° |
| 2026-05-07 01:50 | -25.37652 | -65.32526 | 19389 ft | 326 kts | 163° |
| 2026-05-07 01:50 | -25.39789 | -65.31596 | 19777 ft | 334 kts | 163° |
| 2026-05-07 01:50 | -25.41978 | -65.30644 | 20160 ft | 342 kts | 163° |
| 2026-05-07 01:50 | -25.44221 | -65.29667 | 20539 ft | 350 kts | 163° |
| 2026-05-07 01:51 | -25.46483 | -65.28685 | 20913 ft | 357 kts | 163° |
| 2026-05-07 01:51 | -25.48816 | -65.27671 | 21292 ft | 364 kts | 163° |
| 2026-05-07 01:51 | -25.51200 | -65.26634 | 21671 ft | 371 kts | 163° |
| 2026-05-07 01:51 | -25.53624 | -65.25580 | 22049 ft | 377 kts | 163° |
| 2026-05-07 01:52 | -25.56083 | -65.24509 | 22426 ft | 383 kts | 163° |
| 2026-05-07 01:52 | -25.58579 | -65.23422 | 22803 ft | 388 kts | 164° |
| 2026-05-07 01:52 | -25.61113 | -65.22318 | 23181 ft | 393 kts | 164° |
| 2026-05-07 01:52 | -25.63683 | -65.21197 | 23558 ft | 398 kts | 164° |
| 2026-05-07 01:53 | -25.66278 | -65.20065 | 23935 ft | 403 kts | 164° |
| 2026-05-07 01:53 | -25.68901 | -65.18920 | 24312 ft | 407 kts | 164° |
| 2026-05-07 01:53 | -25.71517 | -65.17778 | 24685 ft | 411 kts | 164° |
| 2026-05-07 01:53 | -25.74196 | -65.16608 | 25061 ft | 415 kts | 164° |
| 2026-05-07 01:54 | -25.76941 | -65.15408 | 25338 ft | 422 kts | 164° |
| 2026-05-07 01:54 | -25.79658 | -65.14220 | 25589 ft | 428 kts | 164° |
| 2026-05-07 01:54 | -25.82454 | -65.12996 | 25842 ft | 435 kts | 164° |
| 2026-05-07 01:54 | -25.85295 | -65.11753 | 26095 ft | 440 kts | 164° |
| 2026-05-07 01:55 | -25.88168 | -65.10494 | 26347 ft | 446 kts | 165° |
| 2026-05-07 01:55 | -25.91074 | -65.09221 | 26598 ft | 451 kts | 164° |
| 2026-05-07 01:55 | -25.94010 | -65.07933 | 26849 ft | 456 kts | 164° |
| 2026-05-07 01:55 | -25.96976 | -65.06632 | 27101 ft | 461 kts | 165° |
| 2026-05-07 01:56 | -25.99977 | -65.05315 | 27353 ft | 465 kts | 165° |
| 2026-05-07 01:56 | -26.03002 | -65.03986 | 27605 ft | 469 kts | 165° |
| 2026-05-07 01:56 | -26.06050 | -65.02646 | 27856 ft | 473 kts | 165° |
| 2026-05-07 01:56 | -26.09084 | -65.01312 | 28104 ft | 476 kts | 165° |
| 2026-05-07 01:57 | -26.12180 | -64.99951 | 28354 ft | 480 kts | 165° |
| 2026-05-07 01:57 | -26.15301 | -64.98577 | 28606 ft | 483 kts | 165° |
| 2026-05-07 01:57 | -26.18439 | -64.97195 | 28858 ft | 486 kts | 165° |
| 2026-05-07 01:57 | -26.21590 | -64.95806 | 29108 ft | 489 kts | 165° |
| 2026-05-07 01:58 | -26.24767 | -64.94405 | 29358 ft | 492 kts | 165° |
| 2026-05-07 01:58 | -26.26872 | -64.93476 | 29525 ft | 493 kts | 165° |
| 2026-05-07 01:58 | -26.30076 | -64.92062 | 29775 ft | 496 kts | 165° |
| 2026-05-07 01:58 | -26.34371 | -64.90165 | 30110 ft | 498 kts | 165° |
| 2026-05-07 01:59 | -26.37607 | -64.88735 | 30361 ft | 500 kts | 166° |
| 2026-05-07 01:59 | -26.40848 | -64.87301 | 30612 ft | 502 kts | 166° |
| 2026-05-07 01:59 | -26.42999 | -64.86349 | 30778 ft | 503 kts | 166° |
| 2026-05-07 01:59 | -26.46260 | -64.84905 | 31028 ft | 505 kts | 166° |
| 2026-05-07 02:00 | -26.50595 | -64.82985 | 31360 ft | 506 kts | 166° |
| 2026-05-07 02:00 | -26.52811 | -64.82003 | 31531 ft | 507 kts | 166° |
| 2026-05-07 02:00 | -26.57163 | -64.80072 | 31863 ft | 508 kts | 166° |
| 2026-05-07 02:00 | -26.59348 | -64.79102 | 32028 ft | 509 kts | 166° |
| 2026-05-07 02:01 | -26.63750 | -64.77147 | 32363 ft | 509 kts | 166° |
| 2026-05-07 02:01 | -26.65926 | -64.76180 | 32529 ft | 510 kts | 166° |
| 2026-05-07 02:01 | -26.69223 | -64.74714 | 32779 ft | 510 kts | 166° |
| 2026-05-07 02:01 | -26.72524 | -64.73245 | 33029 ft | 510 kts | 166° |
| 2026-05-07 02:02 | -26.75823 | -64.71777 | 33279 ft | 510 kts | 167° |
| 2026-05-07 02:02 | -26.79126 | -64.70306 | 33530 ft | 510 kts | 167° |
| 2026-05-07 02:02 | -26.82425 | -64.68835 | 33781 ft | 510 kts | 167° |
| 2026-05-07 02:02 | -26.85719 | -64.67365 | 34031 ft | 510 kts | 167° |
| 2026-05-07 02:03 | -26.89017 | -64.65893 | 34280 ft | 509 kts | 167° |
| 2026-05-07 02:03 | -26.92315 | -64.64420 | 34530 ft | 509 kts | 167° |
| 2026-05-07 02:03 | -26.95608 | -64.62949 | 34705 ft | 510 kts | 167° |
| 2026-05-07 02:04 | -27.02249 | -64.59978 | 34711 ft | 517 kts | 167° |
| 2026-05-07 02:04 | -27.08939 | -64.56981 | 34706 ft | 524 kts | 167° |
| 2026-05-07 02:05 | -27.15739 | -64.53932 | 34701 ft | 528 kts | 167° |
| 2026-05-07 02:05 | -27.22590 | -64.50855 | 34695 ft | 531 kts | 167° |
| 2026-05-07 02:06 | -27.29453 | -64.47768 | 34688 ft | 531 kts | 167° |
| 2026-05-07 02:06 | -27.36328 | -64.44673 | 34682 ft | 531 kts | 167° |
| 2026-05-07 02:07 | -27.43157 | -64.41593 | 34678 ft | 532 kts | 167° |
| 2026-05-07 02:07 | -27.53474 | -64.36933 | 34672 ft | 532 kts | 168° |
| 2026-05-07 02:08 | -27.60360 | -64.33818 | 34671 ft | 533 kts | 168° |
| 2026-05-07 02:08 | -27.67202 | -64.30718 | 34670 ft | 533 kts | 168° |
| 2026-05-07 02:09 | -27.74080 | -64.27597 | 34669 ft | 531 kts | 168° |
| 2026-05-07 02:09 | -27.80953 | -64.24475 | 34669 ft | 532 kts | 168° |
| 2026-05-07 02:10 | -27.87830 | -64.21346 | 34669 ft | 532 kts | 168° |
| 2026-05-07 02:10 | -27.94700 | -64.18216 | 34669 ft | 533 kts | 168° |
| 2026-05-07 02:11 | -28.01525 | -64.15102 | 34668 ft | 532 kts | 168° |
| 2026-05-07 02:11 | -28.08440 | -64.11942 | 34667 ft | 532 kts | 168° |
| 2026-05-07 02:12 | -28.15275 | -64.08815 | 34655 ft | 533 kts | 168° |
| 2026-05-07 02:12 | -28.22147 | -64.05666 | 34643 ft | 533 kts | 168° |
| 2026-05-07 02:13 | -28.29013 | -64.02515 | 34642 ft | 533 kts | 168° |
| 2026-05-07 02:13 | -28.35918 | -63.99341 | 34643 ft | 534 kts | 168° |
| 2026-05-07 02:14 | -28.42809 | -63.96169 | 34644 ft | 534 kts | 168° |
| 2026-05-07 02:14 | -28.49655 | -63.93013 | 34644 ft | 534 kts | 168° |
| 2026-05-07 02:15 | -28.56546 | -63.89872 | 34645 ft | 533 kts | 168° |
| 2026-05-07 02:15 | -28.63452 | -63.86695 | 34649 ft | 535 kts | 167° |
| 2026-05-07 02:16 | -28.70348 | -63.83506 | 34657 ft | 535 kts | 167° |
| 2026-05-07 02:16 | -28.77257 | -63.80306 | 34660 ft | 537 kts | 167° |
| 2026-05-07 02:17 | -28.84008 | -63.76427 | 34664 ft | 550 kts | 157° |
| 2026-05-07 02:17 | -28.90525 | -63.71826 | 34661 ft | 550 kts | 156° |
| 2026-05-07 02:18 | -28.97022 | -63.67268 | 34664 ft | 552 kts | 156° |
| 2026-05-07 02:18 | -29.03576 | -63.62684 | 34667 ft | 551 kts | 156° |
| 2026-05-07 02:19 | -29.10120 | -63.58110 | 34669 ft | 551 kts | 156° |
| 2026-05-07 02:19 | -29.16667 | -63.53527 | 34672 ft | 551 kts | 156° |
| 2026-05-07 02:20 | -29.23171 | -63.48983 | 34675 ft | 552 kts | 156° |
| 2026-05-07 02:20 | -29.29730 | -63.44381 | 34678 ft | 552 kts | 156° |
| 2026-05-07 02:21 | -29.36279 | -63.39772 | 34682 ft | 552 kts | 156° |
| 2026-05-07 02:21 | -29.42836 | -63.35151 | 34684 ft | 552 kts | 156° |
| 2026-05-07 02:22 | -29.49378 | -63.30525 | 34686 ft | 553 kts | 156° |
| 2026-05-07 02:22 | -29.55934 | -63.25872 | 34687 ft | 554 kts | 156° |
| 2026-05-07 02:23 | -29.62487 | -63.21209 | 34690 ft | 554 kts | 156° |
| 2026-05-07 02:23 | -29.69005 | -63.16564 | 34692 ft | 554 kts | 156° |
| 2026-05-07 02:24 | -29.75558 | -63.11889 | 34693 ft | 554 kts | 156° |
| 2026-05-07 02:24 | -29.82119 | -63.07221 | 34694 ft | 554 kts | 156° |
| 2026-05-07 02:25 | -29.88634 | -63.02570 | 34696 ft | 554 kts | 156° |
| 2026-05-07 02:25 | -29.95189 | -62.97878 | 34697 ft | 554 kts | 156° |
| 2026-05-07 02:26 | -30.01740 | -62.93182 | 34698 ft | 554 kts | 155° |
| 2026-05-07 02:26 | -30.08310 | -62.88462 | 34699 ft | 557 kts | 155° |
| 2026-05-07 02:27 | -30.14899 | -62.83736 | 34699 ft | 557 kts | 155° |
| 2026-05-07 02:27 | -30.21436 | -62.79023 | 34699 ft | 557 kts | 155° |
| 2026-05-07 02:28 | -30.28006 | -62.74274 | 34700 ft | 557 kts | 155° |
| 2026-05-07 02:28 | -30.34580 | -62.69519 | 34701 ft | 557 kts | 155° |
| 2026-05-07 02:29 | -30.41144 | -62.64766 | 34700 ft | 557 kts | 155° |
| 2026-05-07 02:29 | -30.47721 | -62.59996 | 34701 ft | 557 kts | 155° |
| 2026-05-07 02:30 | -30.54264 | -62.55260 | 34699 ft | 557 kts | 155° |
| 2026-05-07 02:30 | -30.60842 | -62.50483 | 34699 ft | 557 kts | 155° |
| 2026-05-07 02:31 | -30.67408 | -62.45696 | 34698 ft | 557 kts | 155° |
| 2026-05-07 02:31 | -30.73966 | -62.40906 | 34698 ft | 557 kts | 155° |
| 2026-05-07 02:32 | -30.80544 | -62.36111 | 34697 ft | 556 kts | 156° |
| 2026-05-07 02:32 | -30.87080 | -62.31378 | 34695 ft | 557 kts | 155° |
| 2026-05-07 02:33 | -30.93661 | -62.26586 | 34695 ft | 558 kts | 155° |
| 2026-05-07 02:33 | -31.00254 | -62.21777 | 34693 ft | 558 kts | 155° |
| 2026-05-07 02:34 | -31.06841 | -62.16978 | 34692 ft | 558 kts | 155° |
| 2026-05-07 02:34 | -31.13437 | -62.12158 | 34690 ft | 559 kts | 155° |
| 2026-05-07 02:35 | -31.20001 | -62.07352 | 34689 ft | 559 kts | 155° |
| 2026-05-07 02:35 | -31.26587 | -62.02465 | 34687 ft | 560 kts | 154° |
| 2026-05-07 02:36 | -31.33170 | -61.97572 | 34687 ft | 561 kts | 155° |
| 2026-05-07 02:36 | -31.39715 | -61.92682 | 34692 ft | 562 kts | 154° |
| 2026-05-07 02:37 | -31.46320 | -61.87751 | 34692 ft | 562 kts | 154° |
| 2026-05-07 02:37 | -31.52933 | -61.82828 | 34691 ft | 563 kts | 155° |
| 2026-05-07 02:38 | -31.59560 | -61.77894 | 34689 ft | 564 kts | 154° |
| 2026-05-07 02:38 | -31.66182 | -61.72937 | 34691 ft | 564 kts | 154° |
| 2026-05-07 02:39 | -31.72800 | -61.67977 | 34685 ft | 565 kts | 154° |
| 2026-05-07 02:39 | -31.79381 | -61.63013 | 34678 ft | 565 kts | 154° |
| 2026-05-07 02:40 | -31.86013 | -61.58009 | 34672 ft | 565 kts | 154° |
| 2026-05-07 02:40 | -31.92634 | -61.53007 | 34671 ft | 563 kts | 154° |
| 2026-05-07 02:41 | -31.99197 | -61.48044 | 34670 ft | 564 kts | 154° |
| 2026-05-07 02:41 | -32.05782 | -61.43056 | 34670 ft | 562 kts | 154° |
| 2026-05-07 02:42 | -32.12355 | -61.38062 | 34668 ft | 561 kts | 154° |
| 2026-05-07 02:42 | -32.18911 | -61.33078 | 34666 ft | 560 kts | 154° |
| 2026-05-07 02:43 | -32.25476 | -61.28099 | 34664 ft | 560 kts | 154° |
| 2026-05-07 02:43 | -32.32036 | -61.23106 | 34662 ft | 560 kts | 154° |
| 2026-05-07 02:44 | -32.38358 | -61.17769 | 34663 ft | 566 kts | 145° |
| 2026-05-07 02:44 | -32.44447 | -61.11849 | 34656 ft | 566 kts | 146° |
| 2026-05-07 02:45 | -32.50524 | -61.05926 | 34652 ft | 566 kts | 146° |
| 2026-05-07 02:45 | -32.56561 | -61.00023 | 34650 ft | 566 kts | 146° |
| 2026-05-07 02:46 | -32.62629 | -60.94079 | 34647 ft | 564 kts | 146° |
| 2026-05-07 02:46 | -32.68676 | -60.88159 | 34643 ft | 564 kts | 146° |
| 2026-05-07 02:47 | -32.74734 | -60.82221 | 34642 ft | 564 kts | 146° |
| 2026-05-07 02:47 | -32.80746 | -60.76314 | 34641 ft | 563 kts | 146° |
| 2026-05-07 02:48 | -32.86780 | -60.70373 | 34640 ft | 563 kts | 146° |
| 2026-05-07 02:48 | -32.92824 | -60.64412 | 34640 ft | 564 kts | 146° |
| 2026-05-07 02:49 | -32.97851 | -60.59444 | 34641 ft | 563 kts | 145° |
| 2026-05-07 02:49 | -33.03879 | -60.53478 | 34641 ft | 563 kts | 145° |
| 2026-05-07 02:50 | -33.10886 | -60.46528 | 34641 ft | 562 kts | 145° |
| 2026-05-07 02:50 | -33.15882 | -60.41564 | 34643 ft | 562 kts | 145° |
| 2026-05-07 02:51 | -33.21899 | -60.35575 | 34643 ft | 561 kts | 145° |
| 2026-05-07 02:51 | -33.27891 | -60.29600 | 34645 ft | 562 kts | 145° |
| 2026-05-07 02:52 | -33.33889 | -60.23607 | 34646 ft | 561 kts | 145° |
| 2026-05-07 02:52 | -33.39886 | -60.17604 | 34648 ft | 561 kts | 144° |
| 2026-05-07 02:53 | -33.45827 | -60.11647 | 34649 ft | 560 kts | 144° |
| 2026-05-07 02:53 | -33.51808 | -60.05638 | 34650 ft | 560 kts | 144° |
| 2026-05-07 02:54 | -33.57772 | -59.99635 | 34651 ft | 560 kts | 144° |
| 2026-05-07 02:54 | -33.63709 | -59.93648 | 34649 ft | 549 kts | 144° |
| 2026-05-07 02:55 | -33.69459 | -59.87838 | 34376 ft | 533 kts | 144° |
| 2026-05-07 02:55 | -33.72284 | -59.84982 | 33796 ft | 530 kts | 145° |
| 2026-05-07 02:55 | -33.75111 | -59.82119 | 33117 ft | 531 kts | 144° |
| 2026-05-07 02:56 | -33.77940 | -59.79252 | 32425 ft | 531 kts | 144° |
| 2026-05-07 02:56 | -33.80733 | -59.76422 | 31730 ft | 532 kts | 143° |
| 2026-05-07 02:56 | -33.83593 | -59.73516 | 31003 ft | 532 kts | 143° |
| 2026-05-07 02:56 | -33.86419 | -59.70642 | 30271 ft | 532 kts | 143° |
| 2026-05-07 02:57 | -33.89214 | -59.67799 | 29531 ft | 532 kts | 143° |
| 2026-05-07 02:57 | -33.92037 | -59.64925 | 28782 ft | 532 kts | 143° |
| 2026-05-07 02:57 | -33.94861 | -59.62046 | 28015 ft | 531 kts | 143° |
| 2026-05-07 02:57 | -33.97683 | -59.59168 | 27228 ft | 531 kts | 142° |
| 2026-05-07 02:58 | -34.00501 | -59.56291 | 26408 ft | 531 kts | 142° |
| 2026-05-07 02:58 | -34.03325 | -59.53405 | 25559 ft | 531 kts | 142° |
| 2026-05-07 02:58 | -34.06143 | -59.50523 | 24686 ft | 531 kts | 142° |
| 2026-05-07 02:58 | -34.08954 | -59.47645 | 23783 ft | 531 kts | 142° |
| 2026-05-07 02:59 | -34.11763 | -59.44766 | 23074 ft | 526 kts | 141° |
| 2026-05-07 02:59 | -34.14536 | -59.41922 | 22416 ft | 520 kts | 141° |
| 2026-05-07 02:59 | -34.17281 | -59.39104 | 21697 ft | 515 kts | 141° |
| 2026-05-07 02:59 | -34.19994 | -59.36317 | 21038 ft | 510 kts | 141° |
| 2026-05-07 03:00 | -34.22647 | -59.33588 | 20355 ft | 505 kts | 141° |
| 2026-05-07 03:00 | -34.25300 | -59.30858 | 19718 ft | 499 kts | 140° |
| 2026-05-07 03:00 | -34.27936 | -59.28143 | 19051 ft | 494 kts | 140° |
| 2026-05-07 03:00 | -34.30536 | -59.25462 | 18412 ft | 489 kts | 140° |
| 2026-05-07 03:01 | -34.33109 | -59.22806 | 17773 ft | 483 kts | 140° |
| 2026-05-07 03:01 | -34.35661 | -59.20169 | 17131 ft | 478 kts | 140° |
| 2026-05-07 03:01 | -34.38189 | -59.17569 | 16437 ft | 475 kts | 140° |
| 2026-05-07 03:01 | -34.40688 | -59.14981 | 15844 ft | 468 kts | 140° |
| 2026-05-07 03:02 | -34.43144 | -59.12448 | 15413 ft | 459 kts | 140° |
| 2026-05-07 03:02 | -34.45548 | -59.09941 | 14831 ft | 453 kts | 140° |
| 2026-05-07 03:02 | -34.47928 | -59.07454 | 14149 ft | 450 kts | 140° |
| 2026-05-07 03:02 | -34.50287 | -59.04990 | 13517 ft | 445 kts | 140° |
| 2026-05-07 03:03 | -34.52640 | -59.02572 | 12918 ft | 443 kts | 140° |
| 2026-05-07 03:03 | -34.54955 | -59.00164 | 12693 ft | 443 kts | 140° |
| 2026-05-07 03:03 | -34.57289 | -58.97738 | 12445 ft | 443 kts | 141° |
| 2026-05-07 03:03 | -34.59617 | -58.95305 | 12042 ft | 440 kts | 140° |
| 2026-05-07 03:04 | -34.61893 | -58.92877 | 11717 ft | 430 kts | 140° |
| 2026-05-07 03:04 | -34.64126 | -58.90548 | 11484 ft | 417 kts | 141° |
| 2026-05-07 03:04 | -34.66308 | -58.88286 | 11230 ft | 406 kts | 141° |
| 2026-05-07 03:04 | -34.68452 | -58.86060 | 11096 ft | 406 kts | 140° |
| 2026-05-07 03:05 | -34.70604 | -58.83820 | 11008 ft | 410 kts | 141° |
| 2026-05-07 03:05 | -34.72777 | -58.81553 | 10745 ft | 412 kts | 140° |
| 2026-05-07 03:05 | -34.74925 | -58.79318 | 10732 ft | 413 kts | 140° |
| 2026-05-07 03:05 | -34.77137 | -58.77009 | 10542 ft | 413 kts | 140° |
| 2026-05-07 03:06 | -34.79325 | -58.74704 | 10268 ft | 422 kts | 140° |
| 2026-05-07 03:06 | -34.81537 | -58.72372 | 10148 ft | 419 kts | 139° |
| 2026-05-07 03:06 | -34.83722 | -58.70091 | 9596 ft | 420 kts | 139° |
| 2026-05-07 03:06 | -34.85987 | -58.67755 | 8589 ft | 434 kts | 140° |
| 2026-05-07 03:07 | -34.88310 | -58.65370 | 7936 ft | 437 kts | 139° |
| 2026-05-07 03:07 | -34.90601 | -58.63018 | 7626 ft | 424 kts | 139° |
| 2026-05-07 03:07 | -34.92821 | -58.60665 | 7595 ft | 420 kts | 139° |
| 2026-05-07 03:07 | -34.95041 | -58.58360 | 7446 ft | 419 kts | 139° |
| 2026-05-07 03:08 | -34.97275 | -58.56060 | 6974 ft | 427 kts | 142° |
| 2026-05-07 03:08 | -34.99757 | -58.54071 | 6632 ft | 425 kts | 153° |
| 2026-05-07 03:08 | -35.02453 | -58.52688 | 6578 ft | 418 kts | 162° |
| 2026-05-07 03:08 | -35.05203 | -58.51646 | 6712 ft | 406 kts | 165° |
| 2026-05-07 03:09 | -35.07818 | -58.50666 | 6878 ft | 388 kts | 165° |
| 2026-05-07 03:09 | -35.10353 | -58.49719 | 6482 ft | 374 kts | 165° |
| 2026-05-07 03:09 | -35.12806 | -58.48800 | 6004 ft | 364 kts | 165° |
| 2026-05-07 03:09 | -35.15194 | -58.47908 | 5646 ft | 353 kts | 165° |
| 2026-05-07 03:10 | -35.17493 | -58.47051 | 5506 ft | 335 kts | 165° |
| 2026-05-07 03:10 | -35.19656 | -58.46227 | 5461 ft | 317 kts | 162° |
| 2026-05-07 03:10 | -35.21478 | -58.44821 | 5382 ft | 304 kts | 131° |
| 2026-05-07 03:10 | -35.22460 | -58.42669 | 5240 ft | 281 kts | 98° |
| 2026-05-07 03:11 | -35.22400 | -58.40434 | 5066 ft | 251 kts | 63° |
| 2026-05-07 03:11 | -35.21432 | -58.38836 | 4909 ft | 226 kts | 27° |
| 2026-05-07 03:11 | -35.20019 | -58.38043 | 4619 ft | 225 kts | 11° |
| 2026-05-07 03:11 | -35.18480 | -58.37778 | 4245 ft | 220 kts | 355° |
| 2026-05-07 03:12 | -35.17039 | -58.38177 | 4204 ft | 210 kts | 338° |
| 2026-05-07 03:12 | -35.15748 | -58.38988 | 4199 ft | 207 kts | 330° |
| 2026-05-07 03:12 | -35.14514 | -58.39917 | 4148 ft | 214 kts | 329° |
| 2026-05-07 03:12 | -35.13219 | -58.40877 | 3894 ft | 222 kts | 330° |
| 2026-05-07 03:13 | -35.11805 | -58.41726 | 3524 ft | 231 kts | 339° |
| 2026-05-07 03:13 | -35.10282 | -58.42368 | 3176 ft | 231 kts | 341° |
| 2026-05-07 03:13 | -35.08802 | -58.42984 | 3034 ft | 217 kts | 341° |
| 2026-05-07 03:13 | -35.07417 | -58.43559 | 2887 ft | 203 kts | 341° |
| 2026-05-07 03:14 | -35.06121 | -58.44099 | 2722 ft | 191 kts | 341° |
| 2026-05-07 03:14 | -35.04907 | -58.44645 | 2521 ft | 184 kts | 338° |
| 2026-05-07 03:14 | -35.02376 | -58.45820 | 2209 ft | 202 kts | 341° |
| 2026-05-07 03:15 | -35.01027 | -58.46338 | 2205 ft | 205 kts | 343° |
| 2026-05-07 03:15 | -34.99667 | -58.46828 | 2205 ft | 203 kts | 343° |
| 2026-05-07 03:15 | -34.98316 | -58.47307 | 2202 ft | 199 kts | 343° |
| 2026-05-07 03:15 | -34.97082 | -58.47737 | 2226 ft | 176 kts | 343° |
| 2026-05-07 03:16 | -34.95959 | -58.48129 | 2169 ft | 160 kts | 343° |
| 2026-05-07 03:16 | -34.94911 | -58.48494 | 2229 ft | 155 kts | 343° |
| 2026-05-07 03:16 | -34.93863 | -58.48861 | 2192 ft | 158 kts | 343° |
| 2026-05-07 03:16 | -34.92800 | -58.49230 | 1998 ft | 158 kts | 343° |
| 2026-05-07 03:17 | -34.91756 | -58.49594 | 1784 ft | 154 kts | 343° |
| 2026-05-07 03:17 | -34.90748 | -58.49945 | 1603 ft | 146 kts | 343° |
| 2026-05-07 03:17 | -34.89781 | -58.50281 | 1349 ft | 153 kts | 341° |
| 2026-05-07 03:17 | -34.88644 | -58.50677 | 1233 ft | 186 kts | 341° |
| 2026-05-07 03:18 | -34.87352 | -58.51128 | 930 ft | 197 kts | 342° |
| 2026-05-07 03:18 | -34.86040 | -58.51587 | 790 ft | 192 kts | 342° |
| 2026-05-07 03:18 | -34.84804 | -58.52014 | 570 ft | 179 kts | 343° |
| 2026-05-07 03:18 | -34.83626 | -58.52430 | 207 ft | 176 kts | 343° |
| 2026-05-07 03:19 | -34.82501 | -58.52814 | 82 ft | 157 kts | 344° |
| 2026-05-07 03:19 | -34.81578 | -58.53132 | 74 ft | 105 kts | 344° |
| 2026-05-07 03:19 | -34.81209 | -58.53262 | 74 ft | 16 kts | 327° |
| 2026-05-07 03:19 | -34.81167 | -58.53392 | 74 ft | 9 kts | 274° |
| 2026-05-07 03:20 | -34.81164 | -58.53448 | 74 ft | 7 kts | 274° |
| 2026-05-07 03:20 | -34.81147 | -58.53529 | 74 ft | 9 kts | 313° |
| 2026-05-07 03:20 | -34.81105 | -58.53548 | 74 ft | 4 kts | 348° |
| 2026-05-07 03:20 | -34.81066 | -58.53576 | 74 ft | 12 kts | 277° |
| 2026-05-07 03:21 | -34.81084 | -58.53636 | 74 ft | 4 kts | 253° |
| 2026-05-07 03:21 | -34.81090 | -58.53662 | 74 ft | 0 kts | 254° |